Time;durP1;ratioP1;P1;durP2;ratioP2;P2;SDS_P1;SDS_P2;PMS_P1;PMS_P2;Temp;Humidity;BMP_temperature;BMP_pressure;BME280_temperature;BME280_humidity;BME280_pressure;Samples;Min_cycle;Max_cycle;Signal;HPM_P1;HPM_P2
2023/02/11 00:00:41;;;;;;;40.40;25.20;;;;;;;5.70;80.58;102376.50;107516;1254;71495;-74
2023/02/11 00:03:08;;;;;;;41.70;26.10;;;;;;;5.71;80.69;102368.52;107985;1254;61475;-74
2023/02/11 00:05:35;;;;;;;43.40;26.40;;;;;;;5.70;80.78;102360.33;107666;1253;60222;-76
2023/02/11 00:08:02;;;;;;;39.90;25.20;;;;;;;5.70;80.90;102343.63;107492;1253;72656;-75
2023/02/11 00:10:29;;;;;;;41.80;26.10;;;;;;;5.69;81.16;102345.66;107740;1257;70823;-75
2023/02/11 00:12:56;;;;;;;41.30;26.20;;;;;;;5.68;81.44;102343.76;107735;1253;71147;-76
2023/02/11 00:15:22;;;;;;;39.20;24.20;;;;;;;5.67;81.43;102346.48;107637;1254;62905;-74
2023/02/11 00:17:49;;;;;;;42.80;26.50;;;;;;;5.67;81.69;102366.30;107619;1256;60308;-76
2023/02/11 00:20:16;;;;;;;38.50;23.90;;;;;;;5.69;81.99;102376.68;108042;1254;74694;-76
2023/02/11 00:22:42;;;;;;;40.80;26.00;;;;;;;5.69;82.07;102385.48;107656;1253;71511;-75
2023/02/11 00:25:09;;;;;;;42.30;27.20;;;;;;;5.70;82.13;102362.42;107744;1254;72574;-75
2023/02/11 00:27:36;;;;;;;42.20;27.20;;;;;;;5.70;82.50;102364.17;107639;1254;61439;-75
2023/02/11 00:30:04;;;;;;;41.50;26.40;;;;;;;5.71;82.33;102366.77;107665;1253;61285;-76
2023/02/11 00:32:30;;;;;;;44.60;27.10;;;;;;;5.72;82.30;102365.29;107583;1256;75159;-74
2023/02/11 00:34:57;;;;;;;42.60;27.20;;;;;;;5.72;82.53;102365.59;107636;1254;69975;-75
2023/02/11 00:37:24;;;;;;;42.10;27.10;;;;;;;5.71;82.66;102356.54;107438;1252;73274;-75
2023/02/11 00:39:51;;;;;;;44.00;27.00;;;;;;;5.71;83.02;102355.17;107851;1254;61564;-75
2023/02/11 00:42:17;;;;;;;44.20;27.30;;;;;;;5.71;82.95;102367.79;107541;1254;61728;-75
2023/02/11 00:44:44;;;;;;;43.60;27.30;;;;;;;5.69;83.44;102374.59;107860;1256;73686;-77
2023/02/11 00:47:11;;;;;;;43.40;26.20;;;;;;;5.70;83.54;102373.32;107609;1252;71694;-75
2023/02/11 00:49:39;;;;;;;45.70;27.60;;;;;;;5.70;83.56;102375.91;107519;1254;71228;-76
2023/02/11 00:52:06;;;;;;;42.90;28.70;;;;;;;5.73;83.41;102379.80;107563;1253;61224;-75
2023/02/11 00:54:32;;;;;;;45.70;27.80;;;;;;;5.73;83.76;102375.94;107774;1253;61244;-76
2023/02/11 00:56:59;;;;;;;40.70;26.10;;;;;;;5.72;83.76;102383.15;107755;1256;74549;-75
2023/02/11 00:59:26;;;;;;;43.30;28.20;;;;;;;5.71;84.18;102393.23;107800;1254;71206;-75
2023/02/11 01:01:53;;;;;;;47.20;28.10;;;;;;;5.71;84.41;102383.41;107574;1253;71666;-75
2023/02/11 01:04:19;;;;;;;42.20;27.80;;;;;;;5.72;84.35;102386.65;107692;1255;61760;-74
2023/02/11 01:06:46;;;;;;;43.10;27.40;;;;;;;5.72;84.56;102392.29;107767;1252;61262;-76
2023/02/11 01:09:13;;;;;;;44.80;28.20;;;;;;;5.72;84.82;102386.84;107517;1253;73548;-74
2023/02/11 01:11:39;;;;;;;47.80;29.60;;;;;;;5.70;85.15;102379.42;107682;1256;70364;-75
2023/02/11 01:14:07;;;;;;;47.80;28.60;;;;;;;5.72;85.42;102369.89;107599;1253;72664;-75
2023/02/11 01:16:34;;;;;;;39.90;25.10;;;;;;;5.71;85.64;102374.62;108017;1254;59909;-75
2023/02/11 01:19:00;;;;;;;45.20;28.30;;;;;;;5.70;86.02;102367.20;107814;1253;61710;-75
2023/02/11 01:21:27;;;;;;;46.50;27.90;;;;;;;5.69;86.09;102365.29;107921;1254;73748;-74
2023/02/11 01:23:54;;;;;;;44.00;27.10;;;;;;;5.67;86.67;102359.49;107917;1254;70402;-76
2023/02/11 01:26:21;;;;;;;47.00;29.40;;;;;;;5.65;87.15;102357.66;107699;1252;71858;-74
2023/02/11 01:28:48;;;;;;;46.20;28.20;;;;;;;5.65;87.41;102361.00;107935;1254;61231;-75
2023/02/11 01:31:15;;;;;;;46.80;29.30;;;;;;;5.65;87.48;102348.59;107716;1253;61746;-74
2023/02/11 01:33:42;;;;;;;44.80;27.50;;;;;;;5.64;87.97;102331.23;107602;1254;74954;-79
2023/02/11 01:36:10;;;;;;;45.80;29.30;;;;;;;5.63;88.52;102337.98;107793;1253;70942;-75
2023/02/11 01:38:38;;;;;;;45.00;27.70;;;;;;;5.60;89.39;102326.61;107460;1256;73253;-75
2023/02/11 01:41:09;;;;;;;50.60;28.20;;;;;;;5.58;89.85;102318.29;107594;1254;61751;-74
2023/02/11 01:43:46;;;;;;;45.80;26.80;;;;;;;5.57;90.11;102331.17;107848;1253;60501;-75
2023/02/11 01:46:30;;;;;;;49.40;31.70;;;;;;;5.53;90.85;102328.46;107719;1254;73306;-74
2023/02/11 01:49:03;;;;;;;50.90;31.00;;;;;;;5.49;91.59;102309.61;107611;1254;71834;-74
2023/02/11 01:51:38;;;;;;;50.40;30.50;;;;;;;5.47;92.11;102298.17;107555;1253;70881;-75
2023/02/11 02:00:09;;;;;;;54.30;34.30;;;;;;;5.34;94.87;102271.32;107611;1253;75762;-74
2023/02/11 02:02:50;;;;;;;52.40;32.20;;;;;;;5.29;95.78;102261.62;107607;1253;69740;-75
2023/02/11 02:06:00;;;;;;;56.90;33.50;;;;;;;5.27;96.28;102257.17;107323;1256;73399;-75
2023/02/11 02:08:49;;;;;;;55.40;33.80;;;;;;;5.25;96.73;102256.66;107874;1254;61117;-74
2023/02/11 02:11:16;;;;;;;54.70;34.70;;;;;;;5.19;97.37;102256.66;107455;1253;61168;-75
2023/02/11 02:13:43;;;;;;;52.80;31.70;;;;;;;5.18;97.84;102260.58;107190;1253;74687;-74
2023/02/11 02:16:12;;;;;;;55.70;35.00;;;;;;;5.19;97.72;102257.70;107532;1254;69656;-76
2023/02/11 02:19:17;;;;;;;59.40;35.50;;;;;;;5.21;97.73;102266.88;107708;1254;72290;-75
2023/02/11 02:21:52;;;;;;;56.30;34.50;;;;;;;5.23;97.69;102266.95;107735;1256;61214;-76
2023/02/11 02:24:57;;;;;;;51.00;31.10;;;;;;;5.25;97.72;102278.89;107639;1252;61151;-75
2023/02/11 02:27:58;;;;;;;56.60;32.50;;;;;;;5.27;97.51;102280.55;107551;1254;74479;-75
2023/02/11 02:30:49;;;;;;;58.70;32.90;;;;;;;5.28;97.50;102286.80;107718;1254;71235;-74
2023/02/11 02:33:24;;;;;;;54.40;34.40;;;;;;;5.32;97.24;102280.90;107406;1254;72784;-76
2023/02/11 02:35:54;;;;;;;59.50;34.80;;;;;;;5.36;97.01;102274.71;107713;1254;61225;-75
2023/02/11 02:38:30;;;;;;;56.20;34.90;;;;;;;5.38;96.90;102284.02;107758;1254;61168;-75
2023/02/11 02:41:08;;;;;;;50.70;31.50;;;;;;;5.42;96.68;102274.98;107736;1258;74412;-75
2023/02/11 02:43:39;;;;;;;49.70;31.10;;;;;;;5.43;96.50;102276.15;106758;1260;71027;-75
2023/02/11 02:46:15;;;;;;;52.30;32.90;;;;;;;5.44;96.59;102266.21;106678;1258;72763;-74
2023/02/11 02:48:42;;;;;;;52.10;29.80;;;;;;;5.45;96.59;102258.11;108199;1255;61237;-77
2023/02/11 02:51:21;;;;;;;54.70;30.90;;;;;;;5.46;96.57;102251.17;107083;1254;61185;-74
2023/02/11 02:54:00;;;;;;;49.80;30.30;;;;;;;5.47;96.55;102249.17;108220;1255;72968;-74
2023/02/11 02:56:45;;;;;;;52.70;32.30;;;;;;;5.47;96.80;102245.31;106969;1254;70970;-74
2023/02/11 02:59:25;;;;;;;52.40;31.90;;;;;;;5.48;96.75;102240.50;107206;1258;72512;-75
2023/02/11 03:02:09;;;;;;;51.00;29.60;;;;;;;5.51;96.62;102239.99;106503;1254;61359;-76
2023/02/11 03:04:50;;;;;;;51.80;31.30;;;;;;;5.54;96.47;102239.23;106576;1255;61060;-75
2023/02/11 03:07:32;;;;;;;55.70;33.90;;;;;;;5.55;96.41;102235.69;106721;1254;75265;-74
2023/02/11 03:10:07;;;;;;;51.20;29.10;;;;;;;5.53;96.62;102241.80;107060;1255;71172;-75
2023/02/11 03:12:34;;;;;;;50.20;28.80;;;;;;;5.54;96.56;102240.16;107488;1254;71517;-75
2023/02/11 03:15:05;;;;;;;55.10;30.60;;;;;;;5.55;96.57;102240.24;107117;1254;62463;-76
2023/02/11 03:17:34;;;;;;;48.60;29.00;;;;;;;5.58;96.49;102229.35;106261;1254;62369;-77
2023/02/11 03:20:03;;;;;;;52.10;31.20;;;;;;;5.61;96.27;102219.31;106588;1254;73793;-74
2023/02/11 03:22:47;;;;;;;44.80;27.00;;;;;;;5.61;96.06;102222.82;106752;1254;72254;-75
2023/02/11 03:25:14;;;;;;;51.90;31.00;;;;;;;5.63;96.04;102218.11;106680;1258;72754;-75
2023/02/11 03:27:56;;;;;;;53.10;32.10;;;;;;;5.63;96.01;102222.68;106758;1257;61871;-75
2023/02/11 03:30:43;;;;;;;53.20;31.90;;;;;;;5.64;95.97;102215.90;107225;1260;61212;-74
2023/02/11 03:33:21;;;;;;;50.60;31.10;;;;;;;5.65;95.90;102203.39;106643;1257;73430;-76
2023/02/11 03:35:59;;;;;;;51.70;30.30;;;;;;;5.66;95.95;102196.85;106847;1256;69866;-73
2023/02/11 03:38:32;;;;;;;50.70;31.00;;;;;;;5.67;95.93;102200.07;106672;1259;72903;-79
2023/02/11 03:41:01;;;;;;;53.30;31.80;;;;;;;5.68;96.20;102202.15;106965;1256;62140;-75
2023/02/11 03:43:41;;;;;;;49.20;30.50;;;;;;;5.67;96.22;102200.10;107012;1258;61366;-76
2023/02/11 03:46:09;;;;;;;52.80;31.10;;;;;;;5.66;96.56;102203.13;106832;1259;74822;-75
2023/02/11 03:48:43;;;;;;;52.40;31.30;;;;;;;5.68;96.58;102203.56;106574;1256;71223;-74
2023/02/11 03:51:12;;;;;;;51.50;32.00;;;;;;;5.67;96.69;102208.33;106843;1255;74169;-74
2023/02/11 03:53:42;;;;;;;49.20;30.20;;;;;;;5.67;96.79;102211.30;106648;1259;61307;-74
2023/02/11 03:56:15;;;;;;;50.00;30.10;;;;;;;5.69;97.02;102220.50;106608;1257;61333;-76
2023/02/11 03:58:46;;;;;;;50.80;29.40;;;;;;;5.67;97.43;102220.97;106891;1258;75541;-74
2023/02/11 04:01:13;;;;;;;50.50;28.90;;;;;;;5.67;97.45;102225.34;107076;1254;72464;-74
2023/02/11 04:03:41;;;;;;;49.50;29.90;;;;;;;5.68;97.44;102218.98;107041;1255;72464;-77
2023/02/11 04:06:08;;;;;;;50.20;30.10;;;;;;;5.68;97.51;102222.31;106941;1260;62317;-74
2023/02/11 04:08:35;;;;;;;51.00;30.90;;;;;;;5.68;97.60;102220.70;106775;1258;60998;-74
2023/02/11 04:11:02;;;;;;;49.70;30.90;;;;;;;5.71;97.15;102222.45;106829;1260;74524;-75
2023/02/11 04:13:29;;;;;;;44.80;26.80;;;;;;;5.73;97.12;102228.65;106780;1260;72090;-75
2023/02/11 04:15:56;;;;;;;48.90;29.60;;;;;;;5.74;97.35;102237.92;106636;1253;71618;-74
2023/02/11 04:18:23;;;;;;;48.80;31.10;;;;;;;5.75;97.43;102227.64;106676;1258;61322;-74
2023/02/11 04:20:50;;;;;;;48.10;28.80;;;;;;;5.76;97.38;102233.20;107156;1259;61557;-76
2023/02/11 04:23:17;;;;;;;41.10;24.70;;;;;;;5.74;97.48;102219.08;106846;1253;73789;-76
2023/02/11 04:25:44;;;;;;;50.40;28.70;;;;;;;5.74;97.86;102227.03;106565;1259;70982;-78
2023/02/11 04:28:11;;;;;;;48.80;30.40;;;;;;;5.76;97.87;102230.59;106554;1255;71455;-77
2023/02/11 04:30:38;;;;;;;52.50;29.90;;;;;;;5.74;98.19;102224.04;106718;1258;61459;-74
2023/02/11 04:33:05;;;;;;;50.20;30.10;;;;;;;5.73;98.67;102232.87;106854;1258;61343;-74
2023/02/11 04:35:32;;;;;;;54.20;32.20;;;;;;;5.70;99.51;102230.44;106907;1254;74873;-75
2023/02/11 04:37:59;;;;;;;50.70;30.20;;;;;;;5.67;99.82;102229.23;106719;1260;70281;-75
2023/02/11 04:40:26;;;;;;;48.50;28.90;;;;;;;5.67;99.87;102225.75;107073;1258;71478;-77
2023/02/11 04:42:53;;;;;;;52.80;31.90;;;;;;;5.66;100.00;102227.76;106661;1262;61264;-74
2023/02/11 04:45:19;;;;;;;54.50;30.60;;;;;;;5.67;99.94;102224.02;106771;1253;61216;-75
2023/02/11 04:47:46;;;;;;;52.40;29.90;;;;;;;5.65;100.00;102220.63;106604;1260;73527;-75
2023/02/11 04:50:13;;;;;;;47.00;28.00;;;;;;;5.65;100.00;102226.91;106772;1259;69615;-74
2023/02/11 04:52:40;;;;;;;48.00;27.30;;;;;;;5.65;100.00;102228.68;106807;1257;71600;-75
2023/02/11 04:55:07;;;;;;;41.10;25.10;;;;;;;5.64;100.00;102222.41;106832;1260;61392;-75
2023/02/11 04:57:35;;;;;;;49.10;29.10;;;;;;;5.64;100.00;102233.27;107082;1254;61350;-76
2023/02/11 05:00:02;;;;;;;48.30;28.50;;;;;;;5.67;100.00;102226.11;106856;1255;73119;-77
2023/02/11 05:02:29;;;;;;;46.10;26.20;;;;;;;5.67;100.00;102229.05;106922;1256;68978;-75
2023/02/11 05:04:56;;;;;;;45.20;29.50;;;;;;;5.68;100.00;102230.38;106987;1255;72396;-76
2023/02/11 05:33:40;;;;;;;39.30;25.10;;;;;;;6.02;98.50;102227.05;103597;1294;600195;-75
2023/02/11 05:36:10;;;;;;;37.40;24.90;;;;;;;6.04;98.25;102224.45;106172;1266;60921;-76
2023/02/11 05:38:37;;;;;;;37.10;22.70;;;;;;;6.04;98.07;102213.91;105976;1266;60096;-76
2023/02/11 05:41:05;;;;;;;33.60;22.00;;;;;;;6.05;97.98;102210.85;106018;1265;71974;-76
2023/02/11 05:43:34;;;;;;;33.30;22.40;;;;;;;6.04;97.88;102209.53;106622;1263;70947;-75
2023/02/11 05:46:02;;;;;;;35.10;23.00;;;;;;;6.04;97.79;102208.23;106722;1259;72805;-75
2023/02/11 05:48:29;;;;;;;32.90;23.60;;;;;;;6.04;98.04;102207.38;106627;1256;196796;-74
2023/02/11 05:50:56;;;;;;;37.00;23.00;;;;;;;6.05;97.91;102210.27;106518;1261;58870;-75
2023/02/11 05:53:23;;;;;;;32.40;21.30;;;;;;;6.04;97.89;102216.33;106759;1258;70538;-75
2023/02/11 05:55:50;;;;;;;35.60;23.50;;;;;;;6.04;97.99;102218.08;107042;1258;71011;-76
2023/02/11 05:58:17;;;;;;;32.40;21.40;;;;;;;6.06;97.95;102216.70;106548;1258;71125;-75
2023/02/11 06:00:44;;;;;;;34.40;22.50;;;;;;;6.06;97.79;102216.36;106516;1256;59757;-74
2023/02/11 06:03:11;;;;;;;37.30;24.20;;;;;;;6.09;97.80;102209.13;106819;1256;60369;-74
2023/02/11 06:05:38;;;;;;;34.70;22.50;;;;;;;6.13;97.59;102212.54;107202;1259;72845;-74
2023/02/11 06:08:06;;;;;;;35.70;22.20;;;;;;;6.14;97.61;102202.30;106662;1257;69866;-75
2023/02/11 06:10:33;;;;;;;33.90;20.80;;;;;;;6.17;97.46;102202.59;106687;1258;71206;-76
2023/02/11 06:13:00;;;;;;;36.00;23.30;;;;;;;6.19;97.29;102203.94;106522;1261;59953;-78
2023/02/11 06:15:27;;;;;;;38.20;22.60;;;;;;;6.21;97.19;102204.64;106714;1256;59825;-75
2023/02/11 06:17:55;;;;;;;35.00;22.50;;;;;;;6.20;97.26;102203.45;107118;1255;71433;-75
2023/02/11 06:20:22;;;;;;;36.70;23.00;;;;;;;6.23;96.97;102203.25;106768;1259;71049;-76
2023/02/11 06:22:49;;;;;;;35.80;22.00;;;;;;;6.25;97.00;102202.38;106794;1256;71204;-75
2023/02/11 06:25:16;;;;;;;39.40;22.90;;;;;;;6.27;96.63;102202.30;106854;1259;60912;-75
2023/02/11 06:27:43;;;;;;;32.90;22.50;;;;;;;6.28;96.68;102207.83;107029;1257;60435;-74
2023/02/11 06:30:10;;;;;;;37.60;23.50;;;;;;;6.29;96.61;102206.02;106860;1257;71485;-74
2023/02/11 06:32:37;;;;;;;34.70;21.90;;;;;;;6.32;96.67;102205.61;106780;1262;70197;-77
2023/02/11 06:35:12;;;;;;;36.50;22.50;;;;;;;6.31;96.32;102202.11;106686;1260;73603;-75
2023/02/11 06:37:41;;;;;;;37.60;23.20;;;;;;;6.31;96.24;102206.52;106723;1262;62026;-79
2023/02/11 06:40:09;;;;;;;38.10;24.00;;;;;;;6.33;96.46;102206.39;106699;1256;59504;-76
2023/02/11 06:42:37;;;;;;;32.70;22.30;;;;;;;6.34;96.16;102205.45;106741;1260;72923;-75
2023/02/11 06:45:07;;;;;;;33.00;20.90;;;;;;;6.33;96.39;102212.70;106988;1258;71737;-75
2023/02/11 06:47:34;;;;;;;37.40;22.80;;;;;;;6.34;96.06;102212.30;106734;1258;71566;-76
2023/02/11 06:50:04;;;;;;;34.00;21.70;;;;;;;6.37;96.07;102213.69;106588;1257;59953;-75
2023/02/11 06:52:31;;;;;;;37.00;22.10;;;;;;;6.37;95.82;102216.68;106683;1257;60520;-77
2023/02/11 06:54:58;;;;;;;37.20;22.80;;;;;;;6.36;96.00;102221.99;106637;1262;74245;-75
2023/02/11 06:57:25;;;;;;;33.50;20.70;;;;;;;6.38;95.97;102214.67;106993;1261;69429;-75
2023/02/11 06:59:52;;;;;;;33.50;21.30;;;;;;;6.39;95.80;102217.77;106964;1258;70898;-77
2023/02/11 07:02:19;;;;;;;36.90;22.90;;;;;;;6.39;95.87;102209.65;107784;1257;59720;-77
2023/02/11 07:04:47;;;;;;;32.70;19.80;;;;;;;6.41;95.48;102210.42;106777;1257;60468;-75
2023/02/11 07:07:15;;;;;;;31.80;20.40;;;;;;;6.39;95.58;102216.55;106683;1256;71851;-75
2023/02/11 07:09:42;;;;;;;33.30;21.90;;;;;;;6.40;95.66;102218.05;106918;1256;69470;-75
2023/02/11 07:12:09;;;;;;;30.40;18.80;;;;;;;6.39;95.98;102216.73;106566;1263;72769;-72
2023/02/11 07:14:36;;;;;;;31.90;22.40;;;;;;;6.40;95.68;102222.22;106577;1261;61515;-75
2023/02/11 07:17:04;;;;;;;31.10;19.50;;;;;;;6.41;95.54;102223.04;106809;1260;60322;-74
2023/02/11 07:19:30;;;;;;;31.10;18.90;;;;;;;6.42;95.39;102221.05;106854;1260;74188;-74
2023/02/11 07:21:57;;;;;;;32.70;21.20;;;;;;;6.41;95.48;102223.95;107145;1261;71169;-75
2023/02/11 07:24:24;;;;;;;31.50;18.80;;;;;;;6.44;95.33;102218.95;106755;1262;71153;-75
2023/02/11 07:26:52;;;;;;;33.40;22.20;;;;;;;6.45;95.25;102225.05;106674;1260;61301;-76
2023/02/11 07:29:19;;;;;;;35.50;22.30;;;;;;;6.45;95.05;102216.41;106845;1263;59459;-75
2023/02/11 07:31:46;;;;;;;36.20;22.00;;;;;;;6.44;95.06;102220.87;107018;1260;74189;-74
2023/02/11 07:34:13;;;;;;;35.30;22.00;;;;;;;6.44;95.18;102224.26;106810;1258;71559;-74
2023/02/11 07:36:42;;;;;;;31.40;19.80;;;;;;;6.42;95.30;102236.70;106871;1257;70197;-74
2023/02/11 07:39:09;;;;;;;32.10;21.60;;;;;;;6.42;95.43;102229.13;107483;1258;59644;-74
2023/02/11 07:41:36;;;;;;;34.00;22.20;;;;;;;6.44;95.28;102234.11;107040;1257;59646;-74
2023/02/11 07:44:04;;;;;;;35.70;23.40;;;;;;;6.44;95.32;102233.02;107083;1256;71900;-74
2023/02/11 07:46:31;;;;;;;33.20;22.80;;;;;;;6.46;95.19;102235.02;106907;1260;70494;-75
2023/02/11 07:48:59;;;;;;;35.10;22.30;;;;;;;6.45;95.41;102238.55;107025;1257;72754;-75
2023/02/11 07:51:29;;;;;;;30.50;19.80;;;;;;;6.44;95.44;102243.73;106761;1260;60679;-75
2023/02/11 07:53:58;;;;;;;33.10;21.30;;;;;;;6.45;95.52;102244.70;106873;1257;60050;-75
2023/02/11 07:56:26;;;;;;;37.00;23.90;;;;;;;6.46;95.48;102248.70;107611;1257;73793;-77
2023/02/11 07:58:53;;;;;;;37.00;23.20;;;;;;;6.47;95.23;102250.52;106698;1257;69965;-76
2023/02/11 08:01:24;;;;;;;35.40;22.10;;;;;;;6.49;95.37;102242.12;107058;1257;70506;-79
2023/02/11 08:03:51;;;;;;;31.10;20.40;;;;;;;6.50;95.58;102236.09;107042;1259;61151;-76
2023/02/11 08:06:20;;;;;;;35.80;21.80;;;;;;;6.53;95.64;102232.39;106948;1257;60335;-76
2023/02/11 08:08:48;;;;;;;28.70;19.40;;;;;;;6.55;95.36;102236.26;107226;1259;71679;-74
2023/02/11 08:11:19;;;;;;;32.20;20.90;;;;;;;6.57;95.42;102224.40;106835;1259;71105;-75
2023/02/11 08:13:46;;;;;;;30.50;19.80;;;;;;;6.56;95.51;102226.02;107808;1256;73222;-75
2023/02/11 08:16:22;;;;;;;35.50;22.20;;;;;;;6.53;95.37;102229.40;106823;1257;59849;-76
2023/02/11 08:18:50;;;;;;;37.20;22.50;;;;;;;6.56;95.74;102229.91;106630;1261;59913;-75
2023/02/11 08:21:17;;;;;;;30.60;20.00;;;;;;;6.55;95.70;102229.65;106619;1261;71540;-75
2023/02/11 08:23:45;;;;;;;35.80;21.20;;;;;;;6.55;95.78;102234.02;106645;1255;72418;-74
2023/02/11 08:26:23;;;;;;;32.60;21.00;;;;;;;6.55;95.82;102228.90;106324;1257;72330;-76
2023/02/11 08:28:52;;;;;;;36.20;21.80;;;;;;;6.58;95.62;102236.80;107017;1256;61554;-75
2023/02/11 08:31:32;;;;;;;33.40;21.40;;;;;;;6.59;95.82;102243.55;106979;1260;60087;-74
2023/02/11 08:34:01;;;;;;;33.00;19.80;;;;;;;6.61;95.49;102248.54;106478;1258;72836;-76
2023/02/11 08:36:31;;;;;;;33.80;21.50;;;;;;;6.62;95.86;102253.17;106902;1254;69762;-75
2023/02/11 08:39:02;;;;;;;36.10;22.50;;;;;;;6.63;95.69;102252.94;106609;1257;71211;-74
2023/02/11 08:41:44;;;;;;;34.00;22.10;;;;;;;6.66;95.53;102259.59;106431;1257;60225;-73
2023/02/11 08:44:11;;;;;;;33.60;21.60;;;;;;;6.69;95.30;102256.89;106901;1258;60789;-74
2023/02/11 08:46:38;;;;;;;33.30;21.30;;;;;;;6.70;95.33;102268.06;106968;1255;73090;-74
2023/02/11 08:49:05;;;;;;;31.70;20.10;;;;;;;6.74;95.28;102266.58;107142;1256;72164;-74
2023/02/11 08:51:32;;;;;;;32.60;19.00;;;;;;;6.74;95.20;102265.67;106416;1258;73656;-76
2023/02/11 08:54:00;;;;;;;35.70;20.90;;;;;;;6.76;95.08;102267.11;106421;1256;59953;-75
2023/02/11 08:56:29;;;;;;;30.00;19.80;;;;;;;6.77;94.90;102271.62;106724;1257;60611;-74
2023/02/11 08:58:56;;;;;;;31.20;20.10;;;;;;;6.79;94.77;102275.85;106779;1257;71855;-75
2023/02/11 09:01:26;;;;;;;32.30;21.30;;;;;;;6.80;94.76;102273.30;107615;1255;70478;-75
2023/02/11 09:03:53;;;;;;;33.40;19.30;;;;;;;6.82;94.90;102274.76;108640;1256;72081;-75
2023/02/11 09:06:21;;;;;;;32.20;20.50;;;;;;;6.84;95.09;102274.12;108638;1257;60303;-75
2023/02/11 09:08:50;;;;;;;30.00;19.80;;;;;;;6.84;94.86;102282.02;107879;1254;59241;-75
2023/02/11 09:11:20;;;;;;;31.10;20.40;;;;;;;6.82;94.64;102287.77;108827;1257;72290;-75
2023/02/11 09:13:47;;;;;;;32.80;17.80;;;;;;;6.85;95.13;102276.99;109091;1257;70208;-75
2023/02/11 09:16:23;;;;;;;27.40;16.80;;;;;;;6.86;94.95;102279.02;109014;1256;73743;-75
2023/02/11 09:18:50;;;;;;;31.10;19.50;;;;;;;6.91;95.22;102278.30;108922;1257;59971;-75
2023/02/11 09:21:18;;;;;;;29.60;18.00;;;;;;;6.97;95.38;102280.73;108919;1255;60158;-75
2023/02/11 09:23:46;;;;;;;27.10;16.50;;;;;;;6.99;95.06;102277.79;108866;1260;73423;-75
2023/02/11 09:26:28;;;;;;;29.30;17.50;;;;;;;7.00;95.16;102279.81;107584;1257;72993;-76
2023/02/11 09:28:56;;;;;;;25.90;16.90;;;;;;;7.01;95.12;102301.17;107056;1255;72821;-74
2023/02/11 09:31:26;;;;;;;29.10;18.00;;;;;;;7.05;95.37;102289.13;107232;1256;60883;-74
2023/02/11 09:33:56;;;;;;;29.40;16.40;;;;;;;7.06;95.19;102296.75;106976;1258;59668;-74
2023/02/11 09:36:27;;;;;;;26.60;16.80;;;;;;;7.12;95.17;102301.95;107047;1256;71860;-71
2023/02/11 09:38:57;;;;;;;25.60;15.30;;;;;;;7.09;95.04;102299.40;106874;1256;70522;-75
2023/02/11 09:41:45;;;;;;;26.60;16.30;;;;;;;7.06;95.32;102302.56;106822;1257;72495;-74
2023/02/11 09:44:33;;;;;;;30.80;18.40;;;;;;;7.07;95.26;102314.10;107168;1257;60435;-75
2023/02/11 09:47:24;;;;;;;26.80;14.90;;;;;;;7.09;94.87;102313.27;106991;1256;60431;-74
2023/02/11 09:50:04;;;;;;;28.00;17.40;;;;;;;7.12;94.74;102326.05;106891;1257;73047;-76
2023/02/11 09:52:50;;;;;;;30.90;18.70;;;;;;;7.15;94.77;102332.68;106894;1258;69798;-75
2023/02/11 09:55:20;;;;;;;28.60;18.80;;;;;;;7.20;94.79;102344.15;106657;1260;72538;-74
2023/02/11 09:57:47;;;;;;;29.90;18.00;;;;;;;7.21;94.40;102347.05;106934;1256;61264;-74
2023/02/11 10:00:37;;;;;;;28.70;16.30;;;;;;;7.20;94.30;102350.77;107503;1256;60547;-75
2023/02/11 10:03:36;;;;;;;29.80;16.90;;;;;;;7.19;94.29;102354.58;106747;1256;73579;-74
2023/02/11 10:06:12;;;;;;;27.30;15.10;;;;;;;7.13;94.59;102343.95;106718;1257;70930;-74
2023/02/11 10:09:20;;;;;;;30.20;16.50;;;;;;;7.14;94.77;102338.75;106764;1257;72417;-76
2023/02/11 10:12:07;;;;;;;27.90;17.60;;;;;;;7.13;94.78;102348.46;106884;1256;60886;-72
2023/02/11 10:14:59;;;;;;;27.10;17.50;;;;;;;7.14;95.06;102351.44;106868;1255;60521;-73
2023/02/11 10:17:33;;;;;;;26.40;16.60;;;;;;;7.16;94.77;102356.22;107046;1257;72367;-74
2023/02/11 10:20:02;;;;;;;27.50;15.90;;;;;;;7.22;95.08;102355.02;106843;1257;70023;-74
2023/02/11 10:22:46;;;;;;;28.00;17.40;;;;;;;7.24;94.79;102352.43;106918;1255;71251;-75
2023/02/11 10:25:25;;;;;;;32.00;18.80;;;;;;;7.26;94.36;102355.32;106792;1256;60467;-76
2023/02/11 10:27:54;;;;;;;27.50;17.90;;;;;;;7.30;94.62;102351.79;106951;1256;60547;-74
2023/02/11 10:30:30;;;;;;;28.70;17.40;;;;;;;7.29;94.95;102345.35;106677;1257;73996;-76
2023/02/11 10:33:11;;;;;;;22.60;15.40;;;;;;;7.34;94.69;102347.15;106419;1258;71469;-77
2023/02/11 10:35:37;;;;;;;27.10;17.20;;;;;;;7.38;94.45;102357.05;107252;1256;71712;-76
2023/02/11 10:38:04;;;;;;;26.20;15.90;;;;;;;7.42;94.53;102353.13;106970;1253;60867;-75
2023/02/11 10:40:32;;;;;;;30.30;17.80;;;;;;;7.39;94.30;102357.86;107152;1252;60344;-75
2023/02/11 10:43:06;;;;;;;29.80;18.00;;;;;;;7.40;94.61;102363.80;106958;1256;73880;-75
2023/02/11 10:45:41;;;;;;;27.60;17.30;;;;;;;7.43;94.61;102360.58;107063;1253;70880;-76
2023/02/11 10:48:38;;;;;;;27.30;17.50;;;;;;;7.47;94.94;102358.91;106969;1252;73320;-77
2023/02/11 10:51:25;;;;;;;25.50;16.30;;;;;;;7.50;94.39;102359.34;107023;1253;62604;-75
2023/02/11 10:54:20;;;;;;;28.40;16.40;;;;;;;7.45;94.38;102371.84;106690;1253;60650;-75
2023/02/11 10:56:58;;;;;;;28.50;18.10;;;;;;;7.37;94.49;102366.13;107554;1253;73894;-75
2023/02/11 10:59:30;;;;;;;24.30;17.80;;;;;;;7.34;95.19;102361.91;106852;1254;71437;-76
2023/02/11 11:02:01;;;;;;;25.60;16.40;;;;;;;7.33;95.61;102367.09;107448;1253;71164;-76
2023/02/11 11:04:42;;;;;;;28.40;18.20;;;;;;;7.37;95.87;102352.94;107167;1252;60458;-76
2023/02/11 11:07:15;;;;;;;29.70;17.80;;;;;;;7.34;95.73;102364.73;106931;1253;60444;-76
2023/02/11 11:09:50;;;;;;;29.60;19.10;;;;;;;7.33;95.72;102361.48;107091;1254;73145;-75
2023/02/11 11:12:26;;;;;;;26.50;17.80;;;;;;;7.33;95.94;102355.49;107455;1253;71885;-74
2023/02/11 11:15:12;;;;;;;24.70;15.60;;;;;;;7.33;96.17;102366.91;106740;1253;71832;-75
2023/02/11 11:17:39;;;;;;;27.70;18.20;;;;;;;7.34;96.15;102360.52;106767;1253;60892;-76
2023/02/11 11:20:23;;;;;;;27.40;18.00;;;;;;;7.37;96.21;102359.44;107276;1254;60447;-76
2023/02/11 11:23:06;;;;;;;28.00;17.70;;;;;;;7.39;96.08;102356.99;106944;1253;72758;-76
2023/02/11 11:25:37;;;;;;;27.50;17.60;;;;;;;7.39;96.36;102356.12;106912;1254;68727;-76
2023/02/11 11:28:04;;;;;;;31.30;17.70;;;;;;;7.41;96.85;102356.34;107402;1253;71314;-75
2023/02/11 11:30:40;;;;;;;29.50;18.90;;;;;;;7.44;96.53;102356.84;108163;1253;60502;-74
2023/02/11 11:33:20;;;;;;;27.20;17.80;;;;;;;7.44;96.43;102368.98;109236;1252;58806;-74
2023/02/11 11:36:00;;;;;;;25.40;17.70;;;;;;;7.42;96.76;102369.27;109240;1253;72440;-75
2023/02/11 11:38:29;;;;;;;26.80;17.30;;;;;;;7.44;96.26;102374.43;109174;1254;69703;-74
2023/02/11 11:41:14;;;;;;;25.30;17.40;;;;;;;7.42;96.17;102369.59;109278;1252;72322;-74
2023/02/11 11:43:54;;;;;;;29.80;17.10;;;;;;;7.44;96.67;102359.44;109277;1252;59414;-74
2023/02/11 11:46:33;;;;;;;27.80;18.30;;;;;;;7.44;96.84;102360.15;108307;1252;60483;-77
2023/02/11 11:49:27;;;;;;;29.30;18.80;;;;;;;7.44;97.15;102359.61;107027;1256;73613;-75
2023/02/11 11:52:34;;;;;;;27.60;18.30;;;;;;;7.48;97.03;102358.08;107444;1253;70129;-76
2023/02/11 11:55:24;;;;;;;25.10;16.90;;;;;;;7.52;97.02;102353.70;107461;1252;71788;-75
2023/02/11 11:57:51;;;;;;;28.60;18.40;;;;;;;7.51;97.20;102357.49;106975;1253;61372;-76
2023/02/11 12:00:40;;;;;;;25.20;16.40;;;;;;;7.51;97.33;102352.71;107089;1253;60305;-74
2023/02/11 12:03:47;;;;;;;24.30;16.10;;;;;;;7.54;97.71;102350.06;107474;1258;72387;-75